Time;durP1;ratioP1;P1;durP2;ratioP2;P2;SDS_P1;SDS_P2;PMS_P1;PMS_P2;Temp;Humidity;BMP_temperature;BMP_pressure;BME280_temperature;BME280_humidity;BME280_pressure;Samples;Min_cycle;Max_cycle;Signal;HPM_P1;HPM_P2
2023/12/16 00:02:02;;;;;;;25.57;12.87;;;4.60;99.90;;;;;;7838728;28;20186;-86
2023/12/16 00:05:48;;;;;;;30.40;12.90;;;4.60;99.90;;;;;;7846088;28;20288;-85
2023/12/16 00:09:33;;;;;;;32.40;13.90;;;4.60;99.90;;;;;;7855534;28;20186;-86
2023/12/16 00:13:19;;;;;;;29.30;13.27;;;4.60;99.90;;;;;;7841153;28;20595;-86
2023/12/16 00:17:05;;;;;;;27.77;12.83;;;4.60;99.90;;;;;;7860813;28;20702;-86
2023/12/16 00:20:53;;;;;;;28.97;13.13;;;4.60;99.90;;;;;;7858288;28;20662;-85
2023/12/16 00:24:41;;;;;;;27.53;12.83;;;4.60;99.90;;;;;;7848703;28;20201;-86
2023/12/16 00:28:26;;;;;;;28.37;12.23;;;4.60;99.90;;;;;;7858111;28;20181;-86
2023/12/16 00:32:12;;;;;;;34.30;11.87;;;4.60;99.90;;;;;;7867325;28;20230;-85
2023/12/16 00:35:58;;;;;;;24.83;11.57;;;4.60;99.90;;;;;;7853318;28;20217;-86
2023/12/16 00:39:43;;;;;;;23.03;11.17;;;4.60;99.90;;;;;;7853370;28;20247;-86
2023/12/16 00:43:29;;;;;;;29.70;11.87;;;4.70;99.90;;;;;;7856686;28;20647;-86
2023/12/16 00:47:17;;;;;;;25.17;11.73;;;4.70;99.90;;;;;;7843062;28;20202;-86
2023/12/16 00:51:02;;;;;;;27.63;11.93;;;4.60;99.90;;;;;;7835987;28;20162;-86
2023/12/16 00:54:48;;;;;;;21.23;10.60;;;4.60;99.90;;;;;;7852268;28;20206;-85
2023/12/16 00:58:35;;;;;;;29.07;11.50;;;4.70;99.90;;;;;;7839918;28;20205;-86
2023/12/16 01:02:20;;;;;;;26.13;11.57;;;4.70;99.90;;;;;;7849394;28;20643;-86
2023/12/16 01:06:06;;;;;;;25.03;11.07;;;4.70;99.90;;;;;;7835809;28;20626;-86
2023/12/16 01:09:53;;;;;;;28.50;11.30;;;4.60;99.90;;;;;;7836320;28;20197;-86
2023/12/16 01:13:38;;;;;;;26.90;11.13;;;4.70;99.90;;;;;;7852228;28;20177;-86
2023/12/16 01:17:24;;;;;;;26.37;11.50;;;4.70;99.90;;;;;;7847905;28;20718;-86
2023/12/16 01:21:10;;;;;;;31.90;11.20;;;4.60;99.90;;;;;;7844632;28;20166;-86
2023/12/16 01:24:56;;;;;;;30.20;11.33;;;4.70;99.90;;;;;;7841335;28;20197;-87
2023/12/16 01:28:42;;;;;;;31.43;12.77;;;4.60;99.90;;;;;;7848365;28;20205;-86
2023/12/16 01:32:27;;;;;;;23.73;11.37;;;4.70;99.90;;;;;;7872309;28;20183;-87
2023/12/16 01:36:13;;;;;;;29.87;12.00;;;4.60;99.90;;;;;;7863188;28;20206;-86
2023/12/16 01:40:00;;;;;;;25.43;11.67;;;4.70;99.90;;;;;;7857780;28;20182;-86
2023/12/16 01:43:49;;;;;;;26.30;10.90;;;4.70;99.90;;;;;;7841598;28;20205;-86
2023/12/16 01:47:34;;;;;;;27.07;11.63;;;4.70;99.90;;;;;;7842896;28;20240;-86
2023/12/16 01:51:20;;;;;;;28.70;11.03;;;4.80;99.90;;;;;;7850593;28;20198;-86
2023/12/16 01:55:06;;;;;;;26.83;11.43;;;4.70;99.90;;;;;;7838833;28;20204;-85
2023/12/16 01:58:52;;;;;;;26.93;11.97;;;4.70;99.90;;;;;;7862060;28;20197;-87
2023/12/16 02:02:38;;;;;;;30.93;11.67;;;4.70;99.90;;;;;;7845568;28;20188;-86
2023/12/16 02:06:25;;;;;;;28.03;12.13;;;4.70;99.90;;;;;;7865189;28;20637;-86
2023/12/16 02:10:10;;;;;;;30.03;12.70;;;4.80;99.90;;;;;;7868193;28;20178;-86
2023/12/16 02:13:56;;;;;;;32.47;12.40;;;4.70;99.90;;;;;;7865603;28;20182;-86
2023/12/16 02:17:42;;;;;;;29.63;11.03;;;4.70;99.90;;;;;;7838400;28;20214;-86
2023/12/16 02:21:27;;;;;;;29.07;11.23;;;4.70;99.90;;;;;;7855182;28;20272;-86
2023/12/16 02:25:14;;;;;;;31.20;11.23;;;4.80;99.90;;;;;;7842631;28;20561;-86
2023/12/16 02:29:00;;;;;;;27.77;11.33;;;4.70;99.90;;;;;;7840718;28;20206;-87
2023/12/16 02:32:45;;;;;;;30.67;11.50;;;4.70;99.90;;;;;;7858232;28;20186;-86
2023/12/16 02:36:31;;;;;;;24.87;11.10;;;4.70;99.90;;;;;;7837967;28;20723;-86
2023/12/16 02:40:18;;;;;;;22.50;11.50;;;4.80;99.90;;;;;;7859477;28;20230;-87
2023/12/16 02:44:04;;;;;;;30.93;11.13;;;4.80;99.90;;;;;;7883711;28;20176;-87
2023/12/16 02:47:50;;;;;;;29.27;10.33;;;4.70;99.90;;;;;;7871777;28;20189;-86
2023/12/16 02:51:36;;;;;;;30.73;11.77;;;4.70;99.90;;;;;;7825051;28;1134332;-86
2023/12/16 02:55:21;;;;;;;23.30;10.83;;;4.70;99.90;;;;;;7871354;28;20277;-86
2023/12/16 02:59:07;;;;;;;27.40;10.20;;;4.70;99.90;;;;;;7863121;28;20221;-86
2023/12/16 03:02:52;;;;;;;24.27;9.93;;;4.70;99.90;;;;;;7839035;28;20185;-86
2023/12/16 03:06:45;;;;;;;21.03;9.67;;;4.80;99.90;;;;;;7863434;28;20590;-86
2023/12/16 03:10:31;;;;;;;21.70;9.37;;;4.70;99.90;;;;;;7855622;28;20182;-87
2023/12/16 03:14:17;;;;;;;22.50;9.23;;;4.70;99.90;;;;;;7857210;28;20214;-86
2023/12/16 03:18:02;;;;;;;26.10;9.43;;;4.70;99.90;;;;;;7857636;28;20820;-86
2023/12/16 03:21:48;;;;;;;24.13;9.33;;;4.70;99.90;;;;;;7869486;28;20186;-85
2023/12/16 03:25:34;;;;;;;24.47;9.10;;;4.70;99.90;;;;;;7868536;28;20851;-87
2023/12/16 03:29:20;;;;;;;18.97;8.53;;;4.70;99.90;;;;;;7869242;28;20621;-86
2023/12/16 03:33:07;;;;;;;16.57;8.33;;;4.70;99.90;;;;;;7865106;28;20177;-88
2023/12/16 03:36:52;;;;;;;26.67;8.83;;;4.70;99.90;;;;;;7846733;28;20803;-86
2023/12/16 03:40:38;;;;;;;21.27;8.23;;;4.90;99.90;;;;;;7848647;28;20702;-87
2023/12/16 03:44:24;;;;;;;17.90;7.43;;;4.80;99.90;;;;;;7849741;28;20217;-86
2023/12/16 03:48:09;;;;;;;20.03;7.47;;;4.80;99.90;;;;;;7848778;28;20540;-87
2023/12/16 03:51:56;;;;;;;18.93;7.20;;;4.80;99.90;;;;;;7853929;28;20284;-86
2023/12/16 03:55:41;;;;;;;18.73;7.20;;;4.80;99.90;;;;;;7868250;28;20868;-86
2023/12/16 03:59:27;;;;;;;13.77;6.30;;;4.70;99.90;;;;;;7868670;28;20326;-87
2023/12/16 04:03:13;;;;;;;11.93;5.53;;;4.80;99.90;;;;;;7852335;28;20177;-86
2023/12/16 04:07:01;;;;;;;15.27;5.73;;;4.70;99.90;;;;;;7854412;28;20250;-86
2023/12/16 04:10:47;;;;;;;12.37;5.93;;;4.70;99.90;;;;;;7868223;28;20568;-86
2023/12/16 04:14:38;;;;;;;16.90;5.60;;;4.80;99.90;;;;;;7855441;28;20279;-87
2023/12/16 04:18:23;;;;;;;15.07;5.50;;;4.70;99.90;;;;;;7841419;28;20228;-86
2023/12/16 04:22:09;;;;;;;15.80;5.13;;;4.70;99.90;;;;;;7862074;28;20186;-86
2023/12/16 04:25:54;;;;;;;16.80;5.17;;;4.70;99.90;;;;;;7848463;28;20280;-86
2023/12/16 04:29:40;;;;;;;12.07;5.00;;;4.70;99.90;;;;;;7868700;28;20256;-85
2023/12/16 04:33:26;;;;;;;11.07;4.80;;;4.80;99.90;;;;;;7875963;28;20176;-85
2023/12/16 04:37:11;;;;;;;17.23;6.03;;;4.80;99.90;;;;;;7885628;28;20221;-85
2023/12/16 04:40:57;;;;;;;11.70;4.43;;;4.70;99.90;;;;;;7872617;28;20186;-86
2023/12/16 04:44:42;;;;;;;13.80;4.73;;;4.70;99.90;;;;;;7844901;28;20201;-86
2023/12/16 04:48:28;;;;;;;11.00;4.30;;;4.80;99.90;;;;;;7865843;28;20197;-85
2023/12/16 04:52:14;;;;;;;9.73;4.30;;;4.80;99.90;;;;;;7855719;28;20805;-86
2023/12/16 04:56:00;;;;;;;12.87;4.33;;;4.70;99.90;;;;;;7844636;28;20220;-85
2023/12/16 04:59:46;;;;;;;15.00;4.43;;;4.80;99.90;;;;;;7844886;28;20193;-85
2023/12/16 05:03:32;;;;;;;11.53;4.50;;;4.80;99.90;;;;;;7849799;28;20178;-85
2023/12/16 05:07:18;;;;;;;12.97;4.30;;;4.70;99.90;;;;;;7855917;28;20209;-85
2023/12/16 05:11:03;;;;;;;10.37;4.33;;;4.80;99.90;;;;;;7842190;28;20264;-85
2023/12/16 05:14:49;;;;;;;10.30;4.37;;;4.80;99.90;;;;;;7859858;28;20200;-85
2023/12/16 05:18:34;;;;;;;12.43;4.40;;;4.70;99.90;;;;;;7851385;28;20202;-85
2023/12/16 05:22:20;;;;;;;13.10;4.73;;;4.70;99.90;;;;;;7861899;28;20197;-86
2023/12/16 05:26:06;;;;;;;9.13;4.57;;;4.80;99.90;;;;;;7847873;28;20210;-86
2023/12/16 05:29:51;;;;;;;12.90;4.30;;;4.80;99.90;;;;;;7864152;28;20242;-86
2023/12/16 05:33:37;;;;;;;11.80;4.30;;;4.80;99.90;;;;;;7846071;28;20186;-86
2023/12/16 05:37:22;;;;;;;12.80;4.80;;;4.70;99.90;;;;;;7845894;28;20208;-85
2023/12/16 05:41:08;;;;;;;11.87;4.53;;;4.70;99.90;;;;;;7852301;28;20278;-86
2023/12/16 05:44:54;;;;;;;12.23;4.37;;;4.90;99.90;;;;;;7862192;28;20194;-86
2023/12/16 05:48:39;;;;;;;11.17;4.47;;;4.80;99.90;;;;;;7846388;28;20276;-86
2023/12/16 05:52:25;;;;;;;12.50;4.20;;;4.70;99.90;;;;;;7848414;28;20193;-86
2023/12/16 05:56:13;;;;;;;10.33;4.53;;;4.70;99.90;;;;;;7853981;28;20206;-85
2023/12/16 05:59:59;;;;;;;8.77;3.63;;;4.70;99.90;;;;;;7841020;28;20228;-85
2023/12/16 06:03:44;;;;;;;14.30;4.33;;;4.70;99.90;;;;;;7840413;28;20217;-86
2023/12/16 06:07:30;;;;;;;15.07;4.67;;;4.70;99.90;;;;;;7858607;28;20251;-86
2023/12/16 06:11:16;;;;;;;9.00;4.00;;;4.70;99.90;;;;;;7841180;28;20270;-86
2023/12/16 06:15:01;;;;;;;9.53;4.37;;;4.70;99.90;;;;;;7858493;28;20201;-85
2023/12/16 06:18:49;;;;;;;12.20;4.37;;;4.70;99.90;;;;;;7863246;28;20206;-86
2023/12/16 06:22:34;;;;;;;13.40;5.20;;;4.80;99.90;;;;;;7869360;28;20177;-85
2023/12/16 06:26:20;;;;;;;9.57;4.03;;;4.70;99.90;;;;;;7858809;28;20216;-85
2023/12/16 06:30:08;;;;;;;13.07;4.53;;;4.70;99.90;;;;;;7846042;28;20185;-86
2023/12/16 06:33:54;;;;;;;11.53;4.60;;;4.70;99.90;;;;;;7854175;28;20204;-85
2023/12/16 06:37:40;;;;;;;8.67;3.97;;;4.70;99.90;;;;;;7857924;28;20284;-86
2023/12/16 06:41:29;;;;;;;12.43;4.93;;;4.70;99.90;;;;;;7859920;28;20765;-85
2023/12/16 06:45:14;;;;;;;12.00;4.50;;;4.70;99.90;;;;;;7852987;28;20200;-86
2023/12/16 06:49:00;;;;;;;10.90;4.23;;;4.80;99.90;;;;;;7839632;28;20655;-85
2023/12/16 06:52:46;;;;;;;19.83;4.80;;;4.80;99.90;;;;;;7838346;28;20194;-86
2023/12/16 06:56:32;;;;;;;10.43;4.63;;;4.70;99.90;;;;;;7840797;28;20263;-86
2023/12/16 07:00:18;;;;;;;14.27;4.67;;;4.80;99.90;;;;;;7846035;28;20177;-86
2023/12/16 07:04:04;;;;;;;9.63;4.30;;;4.80;99.90;;;;;;7851168;28;20315;-87
2023/12/16 07:07:50;;;;;;;12.77;5.90;;;4.80;99.90;;;;;;7863541;28;20205;-86
2023/12/16 07:11:35;;;;;;;9.40;4.90;;;4.80;99.90;;;;;;7860107;28;20186;-86
2023/12/16 07:15:21;;;;;;;11.37;4.83;;;4.90;99.90;;;;;;7842959;28;20228;-86
2023/12/16 07:19:07;;;;;;;11.80;4.80;;;4.80;99.90;;;;;;7867746;28;20212;-86
2023/12/16 07:22:53;;;;;;;11.37;4.53;;;4.80;99.90;;;;;;7866444;28;20789;-86
2023/12/16 07:26:38;;;;;;;10.23;4.87;;;4.80;99.90;;;;;;7839184;28;20633;-86
2023/12/16 07:30:24;;;;;;;11.77;4.77;;;4.80;99.90;;;;;;7855543;28;20246;-86
2023/12/16 07:34:10;;;;;;;11.43;5.00;;;4.80;99.90;;;;;;7853278;28;20234;-86
2023/12/16 07:37:56;;;;;;;14.60;5.13;;;4.80;99.90;;;;;;7840286;28;20727;-87
2023/12/16 07:41:41;;;;;;;14.67;5.07;;;4.90;99.90;;;;;;7841588;28;20185;-86
2023/12/16 07:45:27;;;;;;;12.70;4.90;;;4.80;99.90;;;;;;7852085;28;20686;-86
2023/12/16 07:49:12;;;;;;;15.40;5.30;;;4.80;99.90;;;;;;7837583;28;20248;-87
2023/12/16 07:52:58;;;;;;;20.37;5.60;;;4.80;99.90;;;;;;7844712;28;20201;-86
2023/12/16 07:56:44;;;;;;;12.13;5.63;;;4.80;99.90;;;;;;7846681;28;20241;-87
2023/12/16 08:00:30;;;;;;;16.57;4.87;;;4.80;99.90;;;;;;7845359;28;20177;-86
2023/12/16 08:04:17;;;;;;;20.13;5.67;;;4.80;99.90;;;;;;7863883;28;20230;-87
2023/12/16 08:08:03;;;;;;;12.90;5.13;;;4.90;99.90;;;;;;7838812;28;20243;-85
2023/12/16 08:11:50;;;;;;;15.37;5.33;;;4.80;99.90;;;;;;7840385;28;20273;-86
2023/12/16 08:15:35;;;;;;;16.30;5.47;;;5.00;99.90;;;;;;7851796;28;20201;-86
2023/12/16 08:19:21;;;;;;;13.57;5.80;;;4.80;99.90;;;;;;7867523;28;20212;-86
2023/12/16 08:23:08;;;;;;;14.60;6.03;;;4.80;99.90;;;;;;7841052;28;20186;-87
2023/12/16 08:26:54;;;;;;;14.23;5.43;;;5.00;99.90;;;;;;7856153;28;20258;-87
2023/12/16 08:30:40;;;;;;;16.23;5.57;;;4.90;99.90;;;;;;7852741;28;20189;-86
2023/12/16 08:34:26;;;;;;;14.47;5.33;;;4.90;99.90;;;;;;7864172;28;20299;-86
2023/12/16 08:38:13;;;;;;;11.87;5.73;;;4.90;99.90;;;;;;7843892;28;20197;-86
2023/12/16 08:41:58;;;;;;;15.73;6.40;;;5.00;99.90;;;;;;7838575;28;20185;-87
2023/12/16 08:45:44;;;;;;;12.97;6.03;;;5.00;99.90;;;;;;7838845;28;20212;-87
2023/12/16 08:49:30;;;;;;;17.97;6.07;;;5.00;99.90;;;;;;7856664;28;20617;-86
2023/12/16 08:53:16;;;;;;;14.13;5.23;;;5.00;99.90;;;;;;7858232;28;20220;-85
2023/12/16 08:57:02;;;;;;;10.37;5.23;;;5.10;99.90;;;;;;7839816;28;20202;-86
2023/12/16 09:00:48;;;;;;;14.80;5.47;;;5.10;99.90;;;;;;7842166;28;20183;-86
2023/12/16 09:04:34;;;;;;;13.40;5.33;;;5.10;99.90;;;;;;7836086;28;20206;-86
2023/12/16 09:08:20;;;;;;;12.63;6.07;;;5.20;99.90;;;;;;7862695;28;20270;-86
2023/12/16 09:12:07;;;;;;;12.90;5.73;;;5.30;99.90;;;;;;7868149;28;20222;-87
2023/12/16 09:15:53;;;;;;;13.10;5.50;;;5.20;99.90;;;;;;7858191;28;20219;-86
2023/12/16 09:19:39;;;;;;;13.47;4.90;;;5.20;99.90;;;;;;7863736;28;20441;-88
2023/12/16 09:23:54;;;;;;;11.60;5.40;;;5.20;99.90;;;;;;7884836;28;20246;-89
2023/12/16 09:27:49;;;;;;;14.60;5.77;;;5.20;99.90;;;;;;7871632;28;20264;-85
2023/12/16 09:31:35;;;;;;;11.73;5.40;;;5.30;99.90;;;;;;7838822;28;20634;-86
2023/12/16 09:35:20;;;;;;;19.93;5.30;;;5.30;99.90;;;;;;7866018;28;20229;-87
2023/12/16 09:39:09;;;;;;;15.43;4.80;;;5.30;99.90;;;;;;7851101;28;20279;-87
2023/12/16 09:42:59;;;;;;;13.37;5.17;;;5.30;99.90;;;;;;7854189;28;20542;-86
2023/12/16 09:46:45;;;;;;;19.13;5.73;;;5.30;99.90;;;;;;7851095;28;20892;-87
2023/12/16 09:50:32;;;;;;;10.90;5.07;;;5.40;99.90;;;;;;7849998;28;20174;-86
2023/12/16 09:54:18;;;;;;;18.13;5.73;;;5.30;99.90;;;;;;7840951;28;20244;-86
2023/12/16 09:58:05;;;;;;;16.77;5.30;;;5.40;99.90;;;;;;7843882;28;20237;-86
2023/12/16 10:01:55;;;;;;;14.17;6.20;;;5.40;99.90;;;;;;7859322;28;20173;-86
2023/12/16 10:05:43;;;;;;;13.17;5.67;;;5.40;99.90;;;;;;7850237;28;20200;-87
2023/12/16 10:09:29;;;;;;;13.80;5.50;;;5.40;99.90;;;;;;7863248;28;20705;-86
2023/12/16 10:13:15;;;;;;;16.63;7.13;;;5.50;99.90;;;;;;7853424;28;20546;-87
2023/12/16 10:17:04;;;;;;;15.77;6.07;;;5.50;99.90;;;;;;7863628;28;20205;-88
2023/12/16 10:20:50;;;;;;;15.07;6.50;;;5.50;99.90;;;;;;7876833;28;20664;-88
2023/12/16 10:24:37;;;;;;;48.87;20.80;;;5.50;99.90;;;;;;7864944;28;20599;-86
2023/12/16 10:28:26;;;;;;;17.70;6.30;;;5.60;99.90;;;;;;7867993;28;20181;-86
2023/12/16 10:32:12;;;;;;;16.13;5.80;;;5.60;99.90;;;;;;7855569;28;20216;-86
2023/12/16 10:35:57;;;;;;;13.00;5.90;;;5.60;99.90;;;;;;7851324;28;20205;-86
2023/12/16 10:39:43;;;;;;;15.90;6.10;;;5.70;99.90;;;;;;7845136;28;20209;-86
2023/12/16 10:43:30;;;;;;;13.47;6.47;;;5.70;99.90;;;;;;7860562;28;20181;-87
2023/12/16 10:47:17;;;;;;;19.17;6.30;;;5.70;99.90;;;;;;7869621;28;20224;-86
2023/12/16 10:51:07;;;;;;;12.07;5.80;;;5.70;99.90;;;;;;7869358;28;20272;-87
2023/12/16 10:55:00;;;;;;;13.93;5.60;;;5.80;99.90;;;;;;7860090;28;20260;-85
2023/12/16 10:59:01;;;;;;;16.70;7.03;;;5.70;99.90;;;;;;7850297;28;20213;-85
2023/12/16 11:03:02;;;;;;;14.90;6.47;;;5.70;99.90;;;;;;7861269;28;20173;-86
2023/12/16 11:07:06;;;;;;;15.57;7.03;;;5.80;99.90;;;;;;7837387;28;20202;-86
2023/12/16 11:10:54;;;;;;;18.40;6.87;;;5.90;99.90;;;;;;7848574;28;20174;-85
2023/12/16 11:14:40;;;;;;;15.27;6.83;;;5.80;99.90;;;;;;7847932;28;20204;-87
2023/12/16 11:18:29;;;;;;;12.47;6.07;;;5.80;99.90;;;;;;7844910;28;20194;-86
2023/12/16 11:22:22;;;;;;;13.93;5.47;;;5.80;99.90;;;;;;7837598;28;20764;-86
2023/12/16 11:26:08;;;;;;;9.83;5.30;;;5.80;99.90;;;;;;7837150;28;20901;-86
2023/12/16 11:29:54;;;;;;;17.57;5.70;;;5.90;99.90;;;;;;7847380;28;20294;-86
2023/12/16 11:33:45;;;;;;;16.87;5.07;;;5.80;99.90;;;;;;7856076;28;20666;-86
2023/12/16 11:37:37;;;;;;;14.40;6.40;;;5.80;99.90;;;;;;7869743;28;20552;-87
2023/12/16 11:41:43;;;;;;;15.70;6.50;;;5.80;99.90;;;;;;7870394;28;20173;-86
2023/12/16 11:45:39;;;;;;;15.00;6.40;;;5.80;99.90;;;;;;7855304;28;20206;-85
2023/12/16 11:49:25;;;;;;;16.07;5.53;;;5.90;99.90;;;;;;7837633;28;20169;-86
2023/12/16 11:53:13;;;;;;;12.63;5.00;;;5.90;99.90;;;;;;7837292;28;20659;-85
2023/12/16 11:56:58;;;;;;;15.30;4.90;;;5.90;99.90;;;;;;7836502;28;20863;-85
2023/12/16 12:00:47;;;;;;;11.30;4.67;;;5.90;99.90;;;;;;7836919;28;20666;-86
2023/12/16 12:04:33;;;;;;;10.33;4.27;;;5.90;99.90;;;;;;7836410;28;20294;-87
2023/12/16 12:08:19;;;;;;;12.73;4.80;;;6.00;99.90;;;;;;7842786;28;20177;-86
2023/12/16 12:12:05;;;;;;;10.37;4.43;;;6.10;99.90;;;;;;7866519;28;20204;-86
2023/12/16 12:15:51;;;;;;;12.23;4.67;;;6.10;99.90;;;;;;7866362;28;20221;-85
2023/12/16 12:19:37;;;;;;;9.30;4.30;;;6.20;99.90;;;;;;7855169;28;20213;-86
2023/12/16 12:23:22;;;;;;;13.57;4.93;;;6.20;99.90;;;;;;7835733;28;20178;-86
2023/12/16 12:27:08;;;;;;;12.90;4.93;;;6.30;99.90;;;;;;7836627;28;20265;-85
2023/12/16 12:31:05;;;;;;;11.50;4.50;;;6.30;99.90;;;;;;7834719;28;20177;-86
2023/12/16 12:34:58;;;;;;;12.67;4.93;;;6.30;99.90;;;;;;7854727;28;20276;-86
2023/12/16 12:38:54;;;;;;;9.17;4.20;;;6.30;99.90;;;;;;7855220;28;20194;-86
2023/12/16 12:42:55;;;;;;;10.07;3.33;;;6.20;99.90;;;;;;7850418;28;20264;-85
2023/12/16 12:46:46;;;;;;;10.03;4.23;;;6.10;99.90;;;;;;7851881;28;20578;-86
2023/12/16 12:50:32;;;;;;;12.20;3.90;;;6.20;99.90;;;;;;7857221;28;20663;-86
2023/12/16 12:54:20;;;;;;;12.07;4.23;;;6.20;99.90;;;;;;7846501;28;20194;-86
2023/12/16 12:58:07;;;;;;;11.80;3.80;;;6.10;99.90;;;;;;7845669;28;20276;-86
2023/12/16 13:01:53;;;;;;;11.27;3.97;;;6.20;99.90;;;;;;7864728;28;20170;-86
2023/12/16 13:05:41;;;;;;;13.77;4.27;;;6.20;99.90;;;;;;7854599;28;20224;-86
2023/12/16 13:09:29;;;;;;;10.10;4.90;;;6.20;99.90;;;;;;7841792;28;20185;-86
2023/12/16 13:13:16;;;;;;;14.47;3.63;;;6.20;99.90;;;;;;7865660;28;20651;-85
2023/12/16 13:17:02;;;;;;;14.93;4.50;;;6.20;99.90;;;;;;7868926;28;20251;-87
2023/12/16 13:20:48;;;;;;;14.17;4.57;;;6.10;99.90;;;;;;7873298;28;20238;-86
2023/12/16 13:24:33;;;;;;;22.80;5.30;;;6.10;99.90;;;;;;7852077;28;20206;-86
2023/12/16 13:28:19;;;;;;;14.60;4.60;;;6.10;99.90;;;;;;7840119;28;20186;-86
2023/12/16 13:32:05;;;;;;;14.10;5.10;;;6.10;99.90;;;;;;7839555;28;20185;-86
2023/12/16 13:35:50;;;;;;;18.60;5.53;;;6.10;99.90;;;;;;7837437;28;20198;-85
2023/12/16 13:39:37;;;;;;;11.90;4.73;;;6.10;99.90;;;;;;7853834;28;20201;-86
2023/12/16 13:43:22;;;;;;;14.93;5.30;;;6.10;99.90;;;;;;7864420;28;20173;-86
2023/12/16 13:47:08;;;;;;;13.17;4.67;;;6.10;99.90;;;;;;7870452;28;20193;-86
2023/12/16 13:50:54;;;;;;;13.27;5.40;;;6.10;99.90;;;;;;7869853;28;20196;-85
2023/12/16 13:54:40;;;;;;;27.60;16.67;;;6.10;99.90;;;;;;7861383;28;20698;-87
2023/12/16 13:58:25;;;;;;;13.27;5.03;;;6.10;99.90;;;;;;7847859;28;20193;-86
2023/12/16 14:02:11;;;;;;;8.67;5.17;;;6.10;99.90;;;;;;7871160;28;20639;-86
2023/12/16 14:05:57;;;;;;;12.60;5.17;;;6.10;99.90;;;;;;7874280;28;20257;-86
2023/12/16 14:09:42;;;;;;;18.87;5.50;;;6.10;99.90;;;;;;7883249;28;20198;-86
2023/12/16 14:13:28;;;;;;;13.97;6.27;;;6.00;99.90;;;;;;7882393;28;20190;-86
2023/12/16 14:17:14;;;;;;;11.80;5.67;;;6.10;99.90;;;;;;7850032;28;20217;-86
2023/12/16 14:20:59;;;;;;;16.07;5.00;;;6.00;99.90;;;;;;7870929;28;20216;-86
2023/12/16 14:24:45;;;;;;;11.90;5.43;;;6.00;99.90;;;;;;7870114;28;20197;-87
2023/12/16 14:28:30;;;;;;;14.93;6.30;;;6.00;99.90;;;;;;7871671;28;20184;-87
2023/12/16 14:32:16;;;;;;;11.90;4.60;;;5.90;99.90;;;;;;7870471;28;20291;-86
2023/12/16 14:36:02;;;;;;;15.23;5.17;;;5.90;99.90;;;;;;7870130;28;20201;-86
2023/12/16 14:39:47;;;;;;;12.00;4.70;;;5.90;99.90;;;;;;7870209;28;20233;-87
2023/12/16 14:43:33;;;;;;;13.53;5.53;;;5.80;99.90;;;;;;7870056;28;20185;-86
2023/12/16 14:47:19;;;;;;;10.40;4.60;;;5.80;99.90;;;;;;7869714;28;20635;-86
2023/12/16 14:51:05;;;;;;;11.87;4.73;;;5.80;99.90;;;;;;7871148;28;20631;-87
2023/12/16 14:54:50;;;;;;;16.03;4.80;;;5.80;99.90;;;;;;7870757;28;20197;-87
2023/12/16 14:58:37;;;;;;;15.43;5.03;;;5.70;99.90;;;;;;7869810;28;20216;-87
2023/12/16 15:02:22;;;;;;;11.57;5.10;;;5.80;99.90;;;;;;7869765;28;20185;-86
2023/12/16 15:06:08;;;;;;;16.53;5.40;;;5.70;99.90;;;;;;7869142;28;20205;-87
2023/12/16 15:09:55;;;;;;;12.63;5.70;;;5.60;99.90;;;;;;7846061;28;20200;-87
2023/12/16 15:13:40;;;;;;;16.20;5.60;;;5.70;99.90;;;;;;7855850;28;20198;-86
2023/12/16 15:17:26;;;;;;;15.80;5.47;;;5.70;99.90;;;;;;7869053;28;20201;-87
2023/12/16 15:21:12;;;;;;;18.43;5.50;;;5.60;99.90;;;;;;7868614;28;20177;-87
2023/12/16 15:24:57;;;;;;;13.80;5.27;;;5.60;99.90;;;;;;7864004;28;20194;-87
2023/12/16 15:28:43;;;;;;;12.17;5.50;;;5.50;99.90;;;;;;7838933;28;20257;-86
2023/12/16 15:32:28;;;;;;;13.00;5.60;;;5.60;99.90;;;;;;7837924;28;20632;-86
2023/12/16 15:36:15;;;;;;;14.07;6.87;;;5.60;99.90;;;;;;7847670;28;20706;-86
2023/12/16 15:40:00;;;;;;;30.17;10.63;;;5.50;99.90;;;;;;7869150;28;20682;-86
2023/12/16 15:43:46;;;;;;;25.07;10.10;;;5.50;99.90;;;;;;7838259;28;20582;-86
2023/12/16 15:47:32;;;;;;;25.37;12.37;;;5.50;99.90;;;;;;7858389;28;20287;-87
2023/12/16 15:51:27;;;;;;;22.00;8.87;;;5.50;99.90;;;;;;7869619;28;20258;-86
2023/12/16 15:55:13;;;;;;;17.17;9.70;;;5.60;99.90;;;;;;7867334;28;20200;-87
2023/12/16 15:58:59;;;;;;;24.20;10.17;;;5.50;99.90;;;;;;7867767;28;20863;-87
2023/12/16 16:02:47;;;;;;;16.83;8.50;;;5.50;99.90;;;;;;7868839;28;20177;-87
2023/12/16 16:06:34;;;;;;;19.00;8.17;;;5.60;99.90;;;;;;7851590;28;20258;-87
2023/12/16 16:10:20;;;;;;;20.20;8.20;;;5.60;99.90;;;;;;7836729;28;20205;-87
2023/12/16 16:14:06;;;;;;;20.50;9.57;;;5.60;99.90;;;;;;7838475;28;20216;-86
2023/12/16 16:17:51;;;;;;;19.30;8.80;;;5.50;99.90;;;;;;7836604;28;20675;-87
2023/12/16 16:21:37;;;;;;;19.33;8.07;;;5.50;99.90;;;;;;7850243;28;20657;-86
2023/12/16 16:25:22;;;;;;;21.87;8.70;;;5.60;99.90;;;;;;7866981;28;20197;-86
2023/12/16 16:29:08;;;;;;;19.20;10.33;;;5.40;99.90;;;;;;7867565;28;20226;-87
2023/12/16 16:32:54;;;;;;;23.20;10.57;;;5.40;99.90;;;;;;7867272;28;20550;-87
2023/12/16 16:36:40;;;;;;;19.50;10.80;;;5.40;99.90;;;;;;7866808;28;20575;-86
2023/12/16 16:40:26;;;;;;;16.87;7.83;;;5.40;99.90;;;;;;7866915;28;20693;-87
2023/12/16 16:44:11;;;;;;;14.40;7.23;;;5.50;99.90;;;;;;7866585;28;20675;-87
2023/12/16 16:47:58;;;;;;;16.07;8.33;;;5.50;99.90;;;;;;7867308;28;20600;-86
2023/12/16 16:51:44;;;;;;;18.07;8.40;;;5.50;99.90;;;;;;7860524;28;20197;-86
2023/12/16 16:55:29;;;;;;;16.60;6.63;;;5.50;99.90;;;;;;7841824;28;20208;-86
2023/12/16 16:59:15;;;;;;;15.50;7.10;;;5.50;99.90;;;;;;7842362;28;20232;-86
2023/12/16 17:03:00;;;;;;;14.60;7.07;;;5.60;99.90;;;;;;7842947;28;20642;-85
2023/12/16 17:06:46;;;;;;;17.77;7.37;;;5.60;99.90;;;;;;7852684;28;20569;-87
2023/12/16 17:10:32;;;;;;;15.97;6.67;;;5.60;99.90;;;;;;7841194;28;20273;-87
2023/12/16 17:14:18;;;;;;;14.27;6.93;;;5.50;99.90;;;;;;7855799;28;20908;-87
2023/12/16 17:18:07;;;;;;;14.63;7.40;;;5.60;99.90;;;;;;7841452;28;20206;-87
2023/12/16 17:21:52;;;;;;;15.40;6.90;;;5.60;99.90;;;;;;7842545;28;20253;-86
2023/12/16 17:25:38;;;;;;;18.63;7.23;;;5.60;99.90;;;;;;7841008;28;20202;-86
2023/12/16 17:29:23;;;;;;;17.03;6.60;;;5.70;99.90;;;;;;7841217;28;20243;-87
2023/12/16 17:33:09;;;;;;;13.60;5.30;;;5.70;99.90;;;;;;7842173;28;20206;-87
2023/12/16 17:36:55;;;;;;;12.87;5.80;;;5.70;99.90;;;;;;7841096;28;20206;-86
2023/12/16 17:40:41;;;;;;;11.90;6.23;;;5.80;99.90;;;;;;7861888;28;20192;-87
2023/12/16 17:44:28;;;;;;;16.00;7.37;;;6.00;99.90;;;;;;7863730;28;20189;-89
2023/12/16 17:48:14;;;;;;;14.43;5.50;;;6.30;99.90;;;;;;7869552;28;20239;-88
2023/12/16 17:52:00;;;;;;;16.63;5.27;;;6.40;99.90;;;;;;7901872;28;20208;-87
2023/12/16 17:55:45;;;;;;;14.50;5.10;;;6.60;99.90;;;;;;7904550;28;20193;-88
2023/12/16 17:59:31;;;;;;;18.00;6.27;;;6.70;99.90;;;;;;7854958;28;20217;-88
2023/12/16 18:03:16;;;;;;;16.77;5.53;;;6.60;99.90;;;;;;7839762;28;20221;-88
2023/12/16 18:07:02;;;;;;;15.67;6.50;;;6.70;99.90;;;;;;7839972;28;20205;-88
2023/12/16 18:10:48;;;;;;;15.47;4.83;;;6.80;99.90;;;;;;7840363;28;20261;-88
2023/12/16 18:14:35;;;;;;;12.90;4.73;;;6.60;99.90;;;;;;7839644;28;20213;-88
2023/12/16 18:18:21;;;;;;;10.20;4.83;;;6.80;99.90;;;;;;7839421;28;20248;-88
2023/12/16 18:22:07;;;;;;;13.40;4.13;;;6.70;99.90;;;;;;7841468;28;20178;-87
2023/12/16 18:25:53;;;;;;;18.70;4.90;;;6.80;99.90;;;;;;7839456;28;20202;-88
2023/12/16 18:29:39;;;;;;;13.10;4.47;;;6.80;99.90;;;;;;7839384;28;20657;-88
2023/12/16 18:33:25;;;;;;;15.73;4.53;;;6.90;99.90;;;;;;7840119;28;20700;-88
2023/12/16 18:37:10;;;;;;;12.63;4.33;;;6.70;99.90;;;;;;7861638;28;20691;-87
2023/12/16 18:40:56;;;;;;;11.43;4.80;;;6.80;99.90;;;;;;7870533;28;20173;-88
2023/12/16 18:44:42;;;;;;;10.87;4.83;;;6.80;99.90;;;;;;7869365;28;20216;-87
2023/12/16 18:48:27;;;;;;;17.67;4.90;;;6.70;99.90;;;;;;7862549;28;20178;-88
2023/12/16 18:52:13;;;;;;;9.80;4.20;;;6.70;99.90;;;;;;7880352;28;20495;-86
2023/12/16 18:56:01;;;;;;;11.03;4.57;;;6.60;99.90;;;;;;7880723;28;20193;-87
2023/12/16 18:59:46;;;;;;;13.60;4.80;;;6.60;99.90;;;;;;7846537;28;20198;-87
2023/12/16 19:03:32;;;;;;;12.80;4.20;;;6.60;99.90;;;;;;7867840;28;20185;-88
2023/12/16 19:07:25;;;;;;;10.37;5.00;;;6.60;99.90;;;;;;7868671;28;20258;-88
2023/12/16 19:11:11;;;;;;;9.27;4.27;;;6.50;99.90;;;;;;7868667;28;20215;-88
2023/12/16 19:14:57;;;;;;;13.77;4.50;;;6.50;99.90;;;;;;7850434;28;20197;-88
2023/12/16 19:18:43;;;;;;;10.37;5.17;;;6.60;99.90;;;;;;7836510;28;20288;-87
2023/12/16 19:22:28;;;;;;;12.53;4.80;;;6.60;99.90;;;;;;7837630;28;20930;-88
2023/12/16 19:26:14;;;;;;;14.27;4.50;;;6.60;99.90;;;;;;7837461;28;20224;-88
2023/12/16 19:30:02;;;;;;;7.07;3.90;;;6.50;99.90;;;;;;7836536;28;20538;-87
2023/12/16 19:33:48;;;;;;;14.77;4.87;;;6.60;99.90;;;;;;7853898;28;20182;-89
2023/12/16 19:37:34;;;;;;;10.13;4.73;;;6.60;99.90;;;;;;7853467;28;20233;-87